createdAt,value
2022-08-19T00:00:20.061Z,14.10
2022-08-19T00:03:11.818Z,14.20
2022-08-19T00:05:47.884Z,14.10
2022-08-19T00:08:24.019Z,15.10
2022-08-19T00:11:00.057Z,15.40
2022-08-19T00:13:36.144Z,15.80
2022-08-19T00:16:12.699Z,16.00
2022-08-19T00:18:48.681Z,16.60
2022-08-19T00:21:25.005Z,17.40
2022-08-19T00:24:02.334Z,17.40
2022-08-19T00:26:39.106Z,15.90
2022-08-19T00:29:20.102Z,16.50
2022-08-19T00:32:03.207Z,15.90
2022-08-19T00:34:45.386Z,15.20
2022-08-19T00:37:28.906Z,15.60
2022-08-19T00:40:10.508Z,15.00
2022-08-19T00:42:47.187Z,15.00
2022-08-19T00:45:36.582Z,15.80
2022-08-19T00:48:15.109Z,14.50
2022-08-19T00:50:56.648Z,15.70
2022-08-19T00:53:36.157Z,15.80
2022-08-19T00:56:12.708Z,15.00
2022-08-19T00:58:49.066Z,14.70
2022-08-19T01:01:25.216Z,14.30
2022-08-19T01:04:01.427Z,15.20
2022-08-19T01:06:40.543Z,14.00
2022-08-19T01:09:16.962Z,15.30
2022-08-19T01:11:53.837Z,14.90
2022-08-19T01:14:31.093Z,14.50
2022-08-19T01:17:08.435Z,15.20
2022-08-19T01:19:48.417Z,15.10
2022-08-19T01:22:37.159Z,15.80
2022-08-19T01:25:15.022Z,14.80
2022-08-19T01:27:53.869Z,14.70
2022-08-19T01:30:37.366Z,14.90
2022-08-19T01:33:13.727Z,16.00
2022-08-19T01:35:51.407Z,15.00
2022-08-19T01:38:32.854Z,15.80
2022-08-19T01:41:11.504Z,15.40
2022-08-19T01:44:13.233Z,15.70
2022-08-19T01:46:45.807Z,16.10
2022-08-19T01:49:26.282Z,15.40
2022-08-19T01:52:03.232Z,15.50
2022-08-19T01:54:39.832Z,14.90
2022-08-19T01:57:17.989Z,15.50
2022-08-19T01:59:54.486Z,15.20
2022-08-19T02:02:30.567Z,15.40
2022-08-19T02:05:10.677Z,15.50
2022-08-19T02:07:47.719Z,15.40
2022-08-19T02:10:26.455Z,15.60
2022-08-19T02:13:02.596Z,15.50
2022-08-19T02:15:38.727Z,16.10
2022-08-19T02:18:15.457Z,16.10
2022-08-19T02:20:52.083Z,15.50
2022-08-19T02:23:28.045Z,16.50
2022-08-19T02:26:04.551Z,16.10
2022-08-19T02:28:41.084Z,15.10
2022-08-19T02:31:25.669Z,15.60
2022-08-19T02:34:02.525Z,15.60
2022-08-19T02:36:42.515Z,15.60
2022-08-19T02:39:18.930Z,16.60
2022-08-19T02:41:54.840Z,17.20
2022-08-19T02:44:31.994Z,17.50
2022-08-19T02:47:09.590Z,18.00
2022-08-19T02:49:45.745Z,17.30
2022-08-19T02:52:24.478Z,16.80
2022-08-19T02:55:01.247Z,16.80
2022-08-19T02:57:38.060Z,17.40
2022-08-19T03:00:17.215Z,16.60
2022-08-19T03:02:53.417Z,17.40
2022-08-19T03:05:46.913Z,17.00
2022-08-19T03:08:26.942Z,17.10
2022-08-19T03:11:02.915Z,16.20
2022-08-19T03:13:38.962Z,16.90
2022-08-19T03:16:16.065Z,18.10
2022-08-19T03:18:53.133Z,18.20
2022-08-19T03:21:36.531Z,18.20
2022-08-19T03:24:15.193Z,17.90
2022-08-19T03:26:58.644Z,18.00
2022-08-19T03:29:43.962Z,16.80
2022-08-19T03:32:32.280Z,17.10
2022-08-19T03:35:10.887Z,16.50
2022-08-19T03:37:46.728Z,16.00
2022-08-19T03:40:23.524Z,16.90
2022-08-19T03:42:59.809Z,18.10
2022-08-19T03:45:36.247Z,18.20
2022-08-19T03:48:12.487Z,18.30
2022-08-19T03:50:48.793Z,17.80
2022-08-19T03:53:24.680Z,17.70
2022-08-19T03:56:02.188Z,18.10
2022-08-19T03:58:38.815Z,17.90
2022-08-19T04:01:20.844Z,17.90
2022-08-19T04:04:11.451Z,20.00
2022-08-19T04:06:48.946Z,16.80
2022-08-19T04:09:25.693Z,16.30
2022-08-19T04:12:02.588Z,15.70
2022-08-19T04:14:40.503Z,16.10
2022-08-19T04:17:16.621Z,16.50
2022-08-19T04:19:52.535Z,16.10
2022-08-19T04:22:28.593Z,16.00
2022-08-19T04:25:06.100Z,15.50
2022-08-19T04:27:47.543Z,16.20
2022-08-19T04:33:00.003Z,14.60
2022-08-19T04:35:41.799Z,13.60
2022-08-19T04:38:21.065Z,13.90
2022-08-19T04:41:11.506Z,13.70
2022-08-19T04:43:51.508Z,12.00
2022-08-19T04:46:40.405Z,13.10
2022-08-19T04:49:28.455Z,12.30
2022-08-19T04:52:05.103Z,12.10
2022-08-19T04:54:41.245Z,12.80
2022-08-19T04:57:17.302Z,12.00
2022-08-19T04:59:58.226Z,11.40
2022-08-19T05:02:34.333Z,10.90
2022-08-19T05:05:12.300Z,10.90
2022-08-19T05:07:48.290Z,10.90
2022-08-19T05:10:25.057Z,10.50
2022-08-19T05:13:01.595Z,10.70
2022-08-19T05:15:37.946Z,10.40
2022-08-19T05:18:31.852Z,10.40
2022-08-19T05:21:34.049Z,10.40
2022-08-19T05:24:11.563Z,9.30
2022-08-19T05:26:51.706Z,10.00
2022-08-19T05:29:36.430Z,9.90
2022-08-19T05:32:13.619Z,9.40
2022-08-19T05:34:56.184Z,9.70
2022-08-19T05:37:32.271Z,9.20
2022-08-19T05:40:10.748Z,9.30
2022-08-19T05:42:47.222Z,8.70
2022-08-19T05:45:32.063Z,9.40
2022-08-19T05:48:08.763Z,9.30
2022-08-19T05:50:47.797Z,9.10
2022-08-19T05:53:24.200Z,9.20
2022-08-19T05:56:00.156Z,8.60
2022-08-19T05:58:36.362Z,9.00
2022-08-19T06:01:20.137Z,8.80
2022-08-19T06:03:56.389Z,8.80
2022-08-19T06:06:35.094Z,8.40
2022-08-19T06:09:12.717Z,9.10
2022-08-19T06:11:55.998Z,9.00
2022-08-19T06:14:40.149Z,8.70
2022-08-19T06:17:18.041Z,8.50
2022-08-19T06:19:55.094Z,8.40
2022-08-19T06:22:31.945Z,8.50
2022-08-19T06:25:11.259Z,8.70
2022-08-19T06:28:13.502Z,8.30
2022-08-19T06:30:44.070Z,8.60
2022-08-19T06:33:20.023Z,8.10
2022-08-19T06:35:56.186Z,8.30
2022-08-19T06:38:32.066Z,8.10
2022-08-19T06:41:10.556Z,8.70
2022-08-19T06:43:46.515Z,8.10
2022-08-19T06:46:24.008Z,7.90
2022-08-19T06:49:00.135Z,7.60
2022-08-19T06:51:42.830Z,7.50
2022-08-19T06:54:21.710Z,7.60
2022-08-19T06:57:03.106Z,7.60
2022-08-19T06:59:39.164Z,7.60
2022-08-19T07:02:15.769Z,7.00
2022-08-19T07:04:52.502Z,7.10
2022-08-19T07:07:29.459Z,7.50
2022-08-19T07:10:08.254Z,7.50
2022-08-19T07:12:44.393Z,6.90
2022-08-19T07:15:22.364Z,7.10
2022-08-19T07:17:58.361Z,7.00
2022-08-19T07:20:34.857Z,7.00
2022-08-19T07:23:15.769Z,7.10
2022-08-19T07:25:53.225Z,7.10
2022-08-19T07:28:29.450Z,7.30
2022-08-19T07:31:05.656Z,7.50
2022-08-19T07:33:44.123Z,6.80
2022-08-19T07:36:29.664Z,7.00
2022-08-19T07:39:12.043Z,7.20
2022-08-19T07:41:49.455Z,6.50
2022-08-19T07:44:26.492Z,6.70
2022-08-19T07:47:04.964Z,6.90
2022-08-19T07:49:41.814Z,7.10
2022-08-19T07:52:18.793Z,7.10
2022-08-19T07:54:55.188Z,6.70
2022-08-19T07:57:31.309Z,6.20
2022-08-19T08:00:11.199Z,7.10
2022-08-19T08:02:47.950Z,7.10
2022-08-19T08:05:44.386Z,6.60
2022-08-19T08:08:44.108Z,6.70
2022-08-19T08:11:25.278Z,7.20
2022-08-19T08:14:06.432Z,7.60
2022-08-19T08:16:47.261Z,7.40
2022-08-19T08:19:27.841Z,8.10
2022-08-19T08:22:07.493Z,8.10
2022-08-19T08:24:43.391Z,7.60
2022-08-19T08:27:20.926Z,9.00
2022-08-19T08:30:02.961Z,9.90
2022-08-19T08:32:40.727Z,9.30
2022-08-19T08:35:22.836Z,9.00
2022-08-19T08:38:00.181Z,8.40
2022-08-19T08:40:51.622Z,8.20
2022-08-19T08:43:37.370Z,8.10
2022-08-19T08:46:31.719Z,8.00
2022-08-19T08:49:22.641Z,8.40
2022-08-19T08:52:07.395Z,8.10
2022-08-19T08:54:55.069Z,8.10
2022-08-19T08:57:42.588Z,8.10
2022-08-19T09:00:27.811Z,8.90
2022-08-19T09:03:06.572Z,9.10
2022-08-19T09:06:01.462Z,8.40
2022-08-19T09:09:04.768Z,9.20
2022-08-19T09:12:03.159Z,8.90
2022-08-19T09:14:51.595Z,8.30
2022-08-19T09:17:34.639Z,7.80
2022-08-19T09:20:24.227Z,8.90
2022-08-19T09:23:02.859Z,9.00
2022-08-19T09:25:41.126Z,7.80
2022-08-19T09:28:22.558Z,9.40
2022-08-19T09:31:03.954Z,8.10
2022-08-19T09:33:40.415Z,7.60
2022-08-19T09:36:31.253Z,7.90
2022-08-19T09:39:16.067Z,7.00
2022-08-19T09:41:53.959Z,7.10
2022-08-19T09:44:30.041Z,7.40
2022-08-19T09:47:06.796Z,7.70
2022-08-19T09:49:44.855Z,7.10
2022-08-19T09:52:20.956Z,8.70
2022-08-19T09:55:00.294Z,7.90
2022-08-19T09:57:36.576Z,7.60
2022-08-19T10:00:16.114Z,7.00
2022-08-19T10:02:53.214Z,7.50
2022-08-19T10:05:48.702Z,7.20
2022-08-19T10:08:30.615Z,7.20
2022-08-19T10:11:27.818Z,7.20
2022-08-19T10:14:07.720Z,7.10
2022-08-19T10:16:44.621Z,7.80
2022-08-19T10:19:25.445Z,7.30
2022-08-19T10:22:04.565Z,7.80
2022-08-19T10:24:40.534Z,7.50
2022-08-19T10:27:17.998Z,7.40
2022-08-19T10:29:53.907Z,8.00
2022-08-19T10:32:34.448Z,8.00
2022-08-19T10:35:12.484Z,7.70
2022-08-19T10:37:57.657Z,7.90
2022-08-19T10:40:38.305Z,7.20
2022-08-19T10:43:14.288Z,7.00
2022-08-19T10:46:00.220Z,6.50
2022-08-19T10:48:36.763Z,7.90
2022-08-19T10:51:31.970Z,7.10
2022-08-19T10:54:12.528Z,6.90
2022-08-19T10:56:56.234Z,7.00
2022-08-19T10:59:36.196Z,7.50
2022-08-19T11:02:15.070Z,7.70
2022-08-19T11:04:52.800Z,7.60
2022-08-19T11:07:30.540Z,7.70
2022-08-19T11:10:12.953Z,7.30
2022-08-19T11:12:49.530Z,7.10
2022-08-19T11:15:26.144Z,7.50
2022-08-19T11:18:01.985Z,6.80
2022-08-19T11:20:38.088Z,7.20
2022-08-19T11:23:14.001Z,7.40
2022-08-19T11:25:51.756Z,7.10
2022-08-19T11:28:27.892Z,6.60
2022-08-19T11:31:04.544Z,7.40
2022-08-19T11:33:40.771Z,6.80
2022-08-19T11:36:18.393Z,6.90
2022-08-19T11:38:55.542Z,7.30
2022-08-19T11:41:32.419Z,7.00
2022-08-19T11:44:10.288Z,7.30
2022-08-19T11:46:48.570Z,7.60
2022-08-19T11:49:25.694Z,7.40
2022-08-19T11:52:02.340Z,7.30
2022-08-19T11:54:38.627Z,7.40
2022-08-19T11:57:17.825Z,7.40
2022-08-19T11:59:57.364Z,6.60
2022-08-19T12:02:33.911Z,6.60
2022-08-19T12:05:13.091Z,6.80
2022-08-19T12:07:49.571Z,6.60
2022-08-19T12:10:26.702Z,6.60
2022-08-19T12:13:03.498Z,6.70
2022-08-19T12:15:42.953Z,6.80
2022-08-19T12:18:19.132Z,7.00
2022-08-19T12:20:57.790Z,6.40
2022-08-19T12:23:34.071Z,6.60
2022-08-19T12:26:13.123Z,6.70
2022-08-19T12:28:49.721Z,6.20
2022-08-19T12:31:25.757Z,7.10
2022-08-19T12:34:02.592Z,7.10
2022-08-19T12:36:38.930Z,7.20
2022-08-19T12:39:14.975Z,6.60
2022-08-19T12:41:53.989Z,7.50
2022-08-19T12:44:32.040Z,7.20
2022-08-19T12:47:14.751Z,6.80
2022-08-19T12:49:55.570Z,7.20
2022-08-19T12:52:32.895Z,6.90
2022-08-19T12:55:12.567Z,6.80
2022-08-19T12:57:49.623Z,6.70
2022-08-19T13:00:28.104Z,6.10
2022-08-19T13:03:04.873Z,6.50
2022-08-19T13:05:40.898Z,6.10
2022-08-19T13:08:16.884Z,6.90
2022-08-19T13:10:53.183Z,6.80
2022-08-19T13:13:29.330Z,6.00
2022-08-19T13:16:07.814Z,6.60
2022-08-19T13:18:47.493Z,6.10
2022-08-19T13:21:26.499Z,6.40
2022-08-19T13:24:02.943Z,5.90
2022-08-19T13:26:39.306Z,7.00
2022-08-19T13:29:35.249Z,6.20
2022-08-19T13:32:29.680Z,6.10
2022-08-19T13:35:06.746Z,6.40
2022-08-19T13:37:46.536Z,6.40
2022-08-19T13:40:27.342Z,6.60
2022-08-19T13:43:17.796Z,6.30
2022-08-19T13:45:59.982Z,6.30
2022-08-19T13:48:36.077Z,6.20
2022-08-19T13:51:12.855Z,6.70
2022-08-19T13:53:49.807Z,6.30
2022-08-19T13:56:26.729Z,6.50
2022-08-19T13:59:02.713Z,7.70
2022-08-19T14:01:39.012Z,6.20
2022-08-19T14:04:15.270Z,6.10
2022-08-19T14:06:51.270Z,5.70
2022-08-19T14:09:27.471Z,6.10
2022-08-19T14:12:03.542Z,6.50
2022-08-19T14:14:41.699Z,6.50
2022-08-19T14:17:18.253Z,6.40
2022-08-19T14:20:00.327Z,6.20
2022-08-19T14:22:49.456Z,6.10
2022-08-19T14:25:30.261Z,6.10
